<?xml version="1.0" encoding="UTF-8" standalone="no" ?>
<gpx xmlns="http://www.topografix.com/GPX/1/1" xmlns:xsi="http://www.w3.org/2001/XMLSchema-instance" xsi:schemaLocation="http://www.topografix.com/GPX/1/1 http://www.topografix.com/GPX/1/1/gpx.xsd" version="1.1" creator="VisuGPX - https://www.visugpx.com">
  <metadata>
    <name>Vouvant prépa</name>
  </metadata>
  <trk>
    <name><![CDATA[8841629-La Vendée à pied 1 er jour]]></name>
    <trkseg>
      <trkpt lat="46.57076" lon="-0.76973">
        <ele>64</ele>
        <time>2020-10-19T12:17:36Z</time>
      </trkpt>
      <trkpt lat="46.57086" lon="-0.76975">
        <ele>65</ele>
        <time>2020-10-19T12:17:49Z</time>
      </trkpt>
      <trkpt lat="46.57133" lon="-0.76995">
        <ele>69</ele>
        <time>2020-10-19T12:18:55Z</time>
      </trkpt>
      <trkpt lat="46.57181" lon="-0.76916">
        <ele>71</ele>
        <time>2020-10-19T12:20:32Z</time>
      </trkpt>
      <trkpt lat="46.57171" lon="-0.76897">
        <ele>69</ele>
        <time>2020-10-19T12:20:53Z</time>
      </trkpt>
      <trkpt lat="46.57167" lon="-0.76871">
        <ele>67</ele>
        <time>2020-10-19T12:21:18Z</time>
      </trkpt>
      <trkpt lat="46.57168" lon="-0.76864">
        <ele>67</ele>
        <time>2020-10-19T12:21:24Z</time>
      </trkpt>
      <trkpt lat="46.57175" lon="-0.76832">
        <ele>64</ele>
        <time>2020-10-19T12:21:55Z</time>
      </trkpt>
      <trkpt lat="46.57169" lon="-0.76804">
        <ele>62</ele>
        <time>2020-10-19T12:22:22Z</time>
      </trkpt>
      <trkpt lat="46.57158" lon="-0.76778">
        <ele>59</ele>
        <time>2020-10-19T12:22:50Z</time>
      </trkpt>
      <trkpt lat="46.57149" lon="-0.76753">
        <ele>57</ele>
        <time>2020-10-19T12:23:16Z</time>
      </trkpt>
      <trkpt lat="46.57115" lon="-0.76711">
        <ele>54</ele>
        <time>2020-10-19T12:24:16Z</time>
      </trkpt>
      <trkpt lat="46.57125" lon="-0.76695">
        <ele>53</ele>
        <time>2020-10-19T12:24:35Z</time>
      </trkpt>
      <trkpt lat="46.57147" lon="-0.76679">
        <ele>52</ele>
        <time>2020-10-19T12:25:08Z</time>
      </trkpt>
      <trkpt lat="46.57177" lon="-0.76634">
        <ele>54</ele>
        <time>2020-10-19T12:26:06Z</time>
      </trkpt>
      <trkpt lat="46.57171" lon="-0.76607">
        <ele>55</ele>
        <time>2020-10-19T12:26:32Z</time>
      </trkpt>
      <trkpt lat="46.57102" lon="-0.76544">
        <ele>65</ele>
        <time>2020-10-19T12:28:21Z</time>
      </trkpt>
      <trkpt lat="46.57047" lon="-0.76495">
        <ele>74</ele>
        <time>2020-10-19T12:29:47Z</time>
      </trkpt>
      <trkpt lat="46.57038" lon="-0.76495">
        <ele>75</ele>
        <time>2020-10-19T12:29:59Z</time>
      </trkpt>
      <trkpt lat="46.57027" lon="-0.76515">
        <ele>74</ele>
        <time>2020-10-19T12:30:22Z</time>
      </trkpt>
      <trkpt lat="46.57001" lon="-0.76539">
        <ele>75</ele>
        <time>2020-10-19T12:31:03Z</time>
      </trkpt>
      <trkpt lat="46.56939" lon="-0.76579">
        <ele>76</ele>
        <time>2020-10-19T12:32:34Z</time>
      </trkpt>
      <trkpt lat="46.5688" lon="-0.7663">
        <ele>78</ele>
        <time>2020-10-19T12:34:05Z</time>
      </trkpt>
      <trkpt lat="46.56848" lon="-0.76656">
        <ele>79</ele>
        <time>2020-10-19T12:34:54Z</time>
      </trkpt>
      <trkpt lat="46.56798" lon="-0.76685">
        <ele>80</ele>
        <time>2020-10-19T12:36:06Z</time>
      </trkpt>
      <trkpt lat="46.56781" lon="-0.76687">
        <ele>80</ele>
        <time>2020-10-19T12:36:29Z</time>
      </trkpt>
      <trkpt lat="46.56771" lon="-0.7668">
        <ele>80</ele>
        <time>2020-10-19T12:36:44Z</time>
      </trkpt>
      <trkpt lat="46.56663" lon="-0.76671">
        <ele>77</ele>
        <time>2020-10-19T12:39:08Z</time>
      </trkpt>
      <trkpt lat="46.5662" lon="-0.76712">
        <ele>77</ele>
        <time>2020-10-19T12:40:17Z</time>
      </trkpt>
      <trkpt lat="46.56606" lon="-0.76743">
        <ele>76</ele>
        <time>2020-10-19T12:40:51Z</time>
      </trkpt>
      <trkpt lat="46.56584" lon="-0.76731">
        <ele>76</ele>
        <time>2020-10-19T12:41:22Z</time>
      </trkpt>
      <trkpt lat="46.56512" lon="-0.76757">
        <ele>76</ele>
        <time>2020-10-19T12:43:01Z</time>
      </trkpt>
      <trkpt lat="46.56468" lon="-0.76798">
        <ele>76</ele>
        <time>2020-10-19T12:44:11Z</time>
      </trkpt>
      <trkpt lat="46.56315" lon="-0.76699">
        <ele>80</ele>
        <time>2020-10-19T12:47:54Z</time>
      </trkpt>
      <trkpt lat="46.56269" lon="-0.76678">
        <ele>78</ele>
        <time>2020-10-19T12:48:59Z</time>
      </trkpt>
      <trkpt lat="46.56183" lon="-0.76636">
        <ele>76</ele>
        <time>2020-10-19T12:51:00Z</time>
      </trkpt>
      <trkpt lat="46.56124" lon="-0.7662">
        <ele>76</ele>
        <time>2020-10-19T12:52:20Z</time>
      </trkpt>
      <trkpt lat="46.55964" lon="-0.7666">
        <ele>77</ele>
        <time>2020-10-19T12:55:56Z</time>
      </trkpt>
      <trkpt lat="46.55952" lon="-0.76647">
        <ele>77</ele>
        <time>2020-10-19T12:56:16Z</time>
      </trkpt>
      <trkpt lat="46.55963" lon="-0.76404">
        <ele>80</ele>
        <time>2020-10-19T13:00:00Z</time>
      </trkpt>
      <trkpt lat="46.55936" lon="-0.76316">
        <ele>81</ele>
        <time>2020-10-19T13:01:28Z</time>
      </trkpt>
      <trkpt lat="46.5594" lon="-0.76247">
        <ele>82</ele>
        <time>2020-10-19T13:02:32Z</time>
      </trkpt>
      <trkpt lat="46.5596" lon="-0.76184">
        <ele>83</ele>
        <time>2020-10-19T13:03:35Z</time>
      </trkpt>
      <trkpt lat="46.56085" lon="-0.75844">
        <ele>90</ele>
        <time>2020-10-19T13:09:29Z</time>
      </trkpt>
      <trkpt lat="46.56041" lon="-0.75793">
        <ele>89</ele>
        <time>2020-10-19T13:10:44Z</time>
      </trkpt>
      <trkpt lat="46.55983" lon="-0.75764">
        <ele>88</ele>
        <time>2020-10-19T13:12:06Z</time>
      </trkpt>
      <trkpt lat="46.55952" lon="-0.75732">
        <ele>89</ele>
        <time>2020-10-19T13:12:57Z</time>
      </trkpt>
      <trkpt lat="46.55921" lon="-0.75711">
        <ele>89</ele>
        <time>2020-10-19T13:13:42Z</time>
      </trkpt>
      <trkpt lat="46.55886" lon="-0.75691">
        <ele>87</ele>
        <time>2020-10-19T13:14:33Z</time>
      </trkpt>
      <trkpt lat="46.55894" lon="-0.75662">
        <ele>87</ele>
        <time>2020-10-19T13:15:01Z</time>
      </trkpt>
      <trkpt lat="46.55907" lon="-0.75635">
        <ele>87</ele>
        <time>2020-10-19T13:15:32Z</time>
      </trkpt>
      <trkpt lat="46.55937" lon="-0.75536">
        <ele>87</ele>
        <time>2020-10-19T13:17:11Z</time>
      </trkpt>
      <trkpt lat="46.55933" lon="-0.75509">
        <ele>87</ele>
        <time>2020-10-19T13:17:36Z</time>
      </trkpt>
      <trkpt lat="46.55881" lon="-0.75487">
        <ele>85</ele>
        <time>2020-10-19T13:18:48Z</time>
      </trkpt>
      <trkpt lat="46.55833" lon="-0.7548">
        <ele>84</ele>
        <time>2020-10-19T13:19:53Z</time>
      </trkpt>
      <trkpt lat="46.55701" lon="-0.75474">
        <ele>79</ele>
        <time>2020-10-19T13:22:49Z</time>
      </trkpt>
      <trkpt lat="46.55676" lon="-0.75459">
        <ele>78</ele>
        <time>2020-10-19T13:23:25Z</time>
      </trkpt>
      <trkpt lat="46.55555" lon="-0.75335">
        <ele>79</ele>
        <time>2020-10-19T13:26:43Z</time>
      </trkpt>
      <trkpt lat="46.55477" lon="-0.75319">
        <ele>79</ele>
        <time>2020-10-19T13:28:28Z</time>
      </trkpt>
      <trkpt lat="46.55425" lon="-0.75315">
        <ele>79</ele>
        <time>2020-10-19T13:29:37Z</time>
      </trkpt>
      <trkpt lat="46.55348" lon="-0.75312">
        <ele>80</ele>
        <time>2020-10-19T13:31:20Z</time>
      </trkpt>
      <trkpt lat="46.55247" lon="-0.75315">
        <ele>77</ele>
        <time>2020-10-19T13:33:35Z</time>
      </trkpt>
      <trkpt lat="46.55175" lon="-0.75285">
        <ele>75</ele>
        <time>2020-10-19T13:35:15Z</time>
      </trkpt>
      <trkpt lat="46.55153" lon="-0.75266">
        <ele>75</ele>
        <time>2020-10-19T13:35:49Z</time>
      </trkpt>
      <trkpt lat="46.551" lon="-0.75236">
        <ele>77</ele>
        <time>2020-10-19T13:37:05Z</time>
      </trkpt>
      <trkpt lat="46.55051" lon="-0.75235">
        <ele>76</ele>
        <time>2020-10-19T13:38:10Z</time>
      </trkpt>
      <trkpt lat="46.54944" lon="-0.75239">
        <ele>73</ele>
        <time>2020-10-19T13:40:33Z</time>
      </trkpt>
      <trkpt lat="46.54778" lon="-0.75238">
        <ele>64</ele>
        <time>2020-10-19T13:44:15Z</time>
      </trkpt>
      <trkpt lat="46.54749" lon="-0.75222">
        <ele>62</ele>
        <time>2020-10-19T13:44:56Z</time>
      </trkpt>
      <trkpt lat="46.54726" lon="-0.75189">
        <ele>63</ele>
        <time>2020-10-19T13:45:39Z</time>
      </trkpt>
      <trkpt lat="46.54706" lon="-0.75144">
        <ele>63</ele>
        <time>2020-10-19T13:46:28Z</time>
      </trkpt>
      <trkpt lat="46.54682" lon="-0.75118">
        <ele>64</ele>
        <time>2020-10-19T13:47:08Z</time>
      </trkpt>
      <trkpt lat="46.54651" lon="-0.75125">
        <ele>65</ele>
        <time>2020-10-19T13:47:50Z</time>
      </trkpt>
      <trkpt lat="46.54605" lon="-0.75163">
        <ele>66</ele>
        <time>2020-10-19T13:49:01Z</time>
      </trkpt>
      <trkpt lat="46.54536" lon="-0.75254">
        <ele>64</ele>
        <time>2020-10-19T13:51:05Z</time>
      </trkpt>
      <trkpt lat="46.54515" lon="-0.75271">
        <ele>63</ele>
        <time>2020-10-19T13:51:37Z</time>
      </trkpt>
      <trkpt lat="46.5449" lon="-0.75281">
        <ele>64</ele>
        <time>2020-10-19T13:52:12Z</time>
      </trkpt>
      <trkpt lat="46.54478" lon="-0.75278">
        <ele>65</ele>
        <time>2020-10-19T13:52:28Z</time>
      </trkpt>
      <trkpt lat="46.54479" lon="-0.75262">
        <ele>65</ele>
        <time>2020-10-19T13:52:43Z</time>
      </trkpt>
      <trkpt lat="46.54476" lon="-0.75242">
        <ele>67</ele>
        <time>2020-10-19T13:53:01Z</time>
      </trkpt>
      <trkpt lat="46.54471" lon="-0.75236">
        <ele>68</ele>
        <time>2020-10-19T13:53:10Z</time>
      </trkpt>
      <trkpt lat="46.54465" lon="-0.75235">
        <ele>68</ele>
        <time>2020-10-19T13:53:18Z</time>
      </trkpt>
      <trkpt lat="46.54471" lon="-0.75261">
        <ele>66</ele>
        <time>2020-10-19T13:53:43Z</time>
      </trkpt>
      <trkpt lat="46.54467" lon="-0.75359">
        <ele>63</ele>
        <time>2020-10-19T13:55:13Z</time>
      </trkpt>
      <trkpt lat="46.54469" lon="-0.7539">
        <ele>63</ele>
        <time>2020-10-19T13:55:42Z</time>
      </trkpt>
      <trkpt lat="46.54473" lon="-0.75402">
        <ele>63</ele>
        <time>2020-10-19T13:55:54Z</time>
      </trkpt>
      <trkpt lat="46.54466" lon="-0.75439">
        <ele>64</ele>
        <time>2020-10-19T13:56:29Z</time>
      </trkpt>
      <trkpt lat="46.54459" lon="-0.75434">
        <ele>64</ele>
        <time>2020-10-19T13:56:40Z</time>
      </trkpt>
      <trkpt lat="46.54452" lon="-0.75417">
        <ele>64</ele>
        <time>2020-10-19T13:56:58Z</time>
      </trkpt>
      <trkpt lat="46.54443" lon="-0.7542">
        <ele>64</ele>
        <time>2020-10-19T13:57:10Z</time>
      </trkpt>
      <trkpt lat="46.5438" lon="-0.75504">
        <ele>65</ele>
        <time>2020-10-19T13:59:04Z</time>
      </trkpt>
      <trkpt lat="46.5435" lon="-0.75512">
        <ele>64</ele>
        <time>2020-10-19T13:59:45Z</time>
      </trkpt>
      <trkpt lat="46.54319" lon="-0.7554">
        <ele>64</ele>
        <time>2020-10-19T14:00:34Z</time>
      </trkpt>
      <trkpt lat="46.54284" lon="-0.7555">
        <ele>65</ele>
        <time>2020-10-19T14:01:21Z</time>
      </trkpt>
      <trkpt lat="46.54236" lon="-0.75583">
        <ele>64</ele>
        <time>2020-10-19T14:02:32Z</time>
      </trkpt>
      <trkpt lat="46.54196" lon="-0.75592">
        <ele>66</ele>
        <time>2020-10-19T14:03:26Z</time>
      </trkpt>
      <trkpt lat="46.54135" lon="-0.75665">
        <ele>66</ele>
        <time>2020-10-19T14:05:12Z</time>
      </trkpt>
      <trkpt lat="46.54096" lon="-0.75735">
        <ele>65</ele>
        <time>2020-10-19T14:06:34Z</time>
      </trkpt>
      <trkpt lat="46.54067" lon="-0.75775">
        <ele>65</ele>
        <time>2020-10-19T14:07:28Z</time>
      </trkpt>
      <trkpt lat="46.54017" lon="-0.75835">
        <ele>65</ele>
        <time>2020-10-19T14:08:54Z</time>
      </trkpt>
      <trkpt lat="46.53996" lon="-0.75842">
        <ele>65</ele>
        <time>2020-10-19T14:09:23Z</time>
      </trkpt>
      <trkpt lat="46.53985" lon="-0.75832">
        <ele>64</ele>
        <time>2020-10-19T14:09:40Z</time>
      </trkpt>
      <trkpt lat="46.53939" lon="-0.75839">
        <ele>62</ele>
        <time>2020-10-19T14:10:42Z</time>
      </trkpt>
      <trkpt lat="46.5389" lon="-0.75854">
        <ele>62</ele>
        <time>2020-10-19T14:11:49Z</time>
      </trkpt>
      <trkpt lat="46.53858" lon="-0.75886">
        <ele>62</ele>
        <time>2020-10-19T14:12:41Z</time>
      </trkpt>
      <trkpt lat="46.53798" lon="-0.7591">
        <ele>59</ele>
        <time>2020-10-19T14:14:04Z</time>
      </trkpt>
      <trkpt lat="46.53787" lon="-0.759">
        <ele>59</ele>
        <time>2020-10-19T14:14:21Z</time>
      </trkpt>
      <trkpt lat="46.53783" lon="-0.75864">
        <ele>61</ele>
        <time>2020-10-19T14:14:55Z</time>
      </trkpt>
      <trkpt lat="46.53766" lon="-0.75841">
        <ele>63</ele>
        <time>2020-10-19T14:15:26Z</time>
      </trkpt>
      <trkpt lat="46.53771" lon="-0.75792">
        <ele>68</ele>
        <time>2020-10-19T14:16:11Z</time>
      </trkpt>
      <trkpt lat="46.53774" lon="-0.75777">
        <ele>69</ele>
        <time>2020-10-19T14:16:25Z</time>
      </trkpt>
      <trkpt lat="46.5378" lon="-0.75766">
        <ele>70</ele>
        <time>2020-10-19T14:16:38Z</time>
      </trkpt>
      <trkpt lat="46.53791" lon="-0.75767">
        <ele>70</ele>
        <time>2020-10-19T14:16:53Z</time>
      </trkpt>
      <trkpt lat="46.53803" lon="-0.75743">
        <ele>73</ele>
        <time>2020-10-19T14:17:20Z</time>
      </trkpt>
      <trkpt lat="46.53812" lon="-0.75694">
        <ele>78</ele>
        <time>2020-10-19T14:18:07Z</time>
      </trkpt>
      <trkpt lat="46.5385" lon="-0.75531">
        <ele>86</ele>
        <time>2020-10-19T14:20:45Z</time>
      </trkpt>
      <trkpt lat="46.53859" lon="-0.75511">
        <ele>87</ele>
        <time>2020-10-19T14:21:07Z</time>
      </trkpt>
      <trkpt lat="46.53852" lon="-0.75499">
        <ele>87</ele>
        <time>2020-10-19T14:21:21Z</time>
      </trkpt>
      <trkpt lat="46.5386" lon="-0.75476">
        <ele>87</ele>
        <time>2020-10-19T14:21:45Z</time>
      </trkpt>
      <trkpt lat="46.53893" lon="-0.75314">
        <ele>88</ele>
        <time>2020-10-19T14:24:20Z</time>
      </trkpt>
      <trkpt lat="46.53943" lon="-0.75085">
        <ele>88</ele>
        <time>2020-10-19T14:28:00Z</time>
      </trkpt>
      <trkpt lat="46.53966" lon="-0.74943">
        <ele>88</ele>
        <time>2020-10-19T14:30:14Z</time>
      </trkpt>
      <trkpt lat="46.53885" lon="-0.74896">
        <ele>87</ele>
        <time>2020-10-19T14:32:11Z</time>
      </trkpt>
      <trkpt lat="46.53832" lon="-0.74855">
        <ele>89</ele>
        <time>2020-10-19T14:33:31Z</time>
      </trkpt>
      <trkpt lat="46.53779" lon="-0.74777">
        <ele>88</ele>
        <time>2020-10-19T14:35:11Z</time>
      </trkpt>
      <trkpt lat="46.53782" lon="-0.74756">
        <ele>87</ele>
        <time>2020-10-19T14:35:31Z</time>
      </trkpt>
      <trkpt lat="46.53834" lon="-0.74706">
        <ele>87</ele>
        <time>2020-10-19T14:36:54Z</time>
      </trkpt>
      <trkpt lat="46.53861" lon="-0.74666">
        <ele>85</ele>
        <time>2020-10-19T14:37:46Z</time>
      </trkpt>
      <trkpt lat="46.53863" lon="-0.74595">
        <ele>84</ele>
        <time>2020-10-19T14:38:51Z</time>
      </trkpt>
      <trkpt lat="46.53812" lon="-0.74489">
        <ele>81</ele>
        <time>2020-10-19T14:40:50Z</time>
      </trkpt>
      <trkpt lat="46.53753" lon="-0.7446">
        <ele>80</ele>
        <time>2020-10-19T14:42:13Z</time>
      </trkpt>
      <trkpt lat="46.53714" lon="-0.74435">
        <ele>79</ele>
        <time>2020-10-19T14:43:10Z</time>
      </trkpt>
      <trkpt lat="46.53578" lon="-0.74318">
        <ele>80</ele>
        <time>2020-10-19T14:46:41Z</time>
      </trkpt>
      <trkpt lat="46.53526" lon="-0.74259">
        <ele>79</ele>
        <time>2020-10-19T14:48:09Z</time>
      </trkpt>
      <trkpt lat="46.5345" lon="-0.74171">
        <ele>79</ele>
        <time>2020-10-19T14:50:18Z</time>
      </trkpt>
      <trkpt lat="46.53436" lon="-0.74143">
        <ele>78</ele>
        <time>2020-10-19T14:50:50Z</time>
      </trkpt>
      <trkpt lat="46.53418" lon="-0.74106">
        <ele>77</ele>
        <time>2020-10-19T14:51:32Z</time>
      </trkpt>
      <trkpt lat="46.53405" lon="-0.74083">
        <ele>77</ele>
        <time>2020-10-19T14:51:59Z</time>
      </trkpt>
      <trkpt lat="46.5339" lon="-0.7403">
        <ele>77</ele>
        <time>2020-10-19T14:52:52Z</time>
      </trkpt>
      <trkpt lat="46.53408" lon="-0.74016">
        <ele>77</ele>
        <time>2020-10-19T14:53:19Z</time>
      </trkpt>
      <trkpt lat="46.53356" lon="-0.73934">
        <ele>78</ele>
        <time>2020-10-19T14:55:01Z</time>
      </trkpt>
      <trkpt lat="46.53351" lon="-0.73938">
        <ele>78</ele>
        <time>2020-10-19T14:55:09Z</time>
      </trkpt>
      <trkpt lat="46.53362" lon="-0.7398">
        <ele>77</ele>
        <time>2020-10-19T14:55:50Z</time>
      </trkpt>
      <trkpt lat="46.53387" lon="-0.74031">
        <ele>77</ele>
        <time>2020-10-19T14:56:48Z</time>
      </trkpt>
      <trkpt lat="46.53399" lon="-0.74068">
        <ele>77</ele>
        <time>2020-10-19T14:57:25Z</time>
      </trkpt>
      <trkpt lat="46.53442" lon="-0.74163">
        <ele>79</ele>
        <time>2020-10-19T14:59:10Z</time>
      </trkpt>
      <trkpt lat="46.53446" lon="-0.74192">
        <ele>79</ele>
        <time>2020-10-19T14:59:37Z</time>
      </trkpt>
      <trkpt lat="46.53413" lon="-0.74312">
        <ele>79</ele>
        <time>2020-10-19T15:01:35Z</time>
      </trkpt>
      <trkpt lat="46.53393" lon="-0.74358">
        <ele>80</ele>
        <time>2020-10-19T15:02:25Z</time>
      </trkpt>
      <trkpt lat="46.53366" lon="-0.74391">
        <ele>81</ele>
        <time>2020-10-19T15:03:12Z</time>
      </trkpt>
      <trkpt lat="46.53314" lon="-0.74513">
        <ele>88</ele>
        <time>2020-10-19T15:05:24Z</time>
      </trkpt>
      <trkpt lat="46.53285" lon="-0.74537">
        <ele>92</ele>
        <time>2020-10-19T15:06:09Z</time>
      </trkpt>
      <trkpt lat="46.53269" lon="-0.74535">
        <ele>94</ele>
        <time>2020-10-19T15:06:30Z</time>
      </trkpt>
      <trkpt lat="46.53241" lon="-0.7455">
        <ele>97</ele>
        <time>2020-10-19T15:07:10Z</time>
      </trkpt>
      <trkpt lat="46.53191" lon="-0.74607">
        <ele>98</ele>
        <time>2020-10-19T15:08:35Z</time>
      </trkpt>
      <trkpt lat="46.53121" lon="-0.74687">
        <ele>100</ele>
        <time>2020-10-19T15:10:34Z</time>
      </trkpt>
      <trkpt lat="46.52985" lon="-0.74839">
        <ele>101</ele>
        <time>2020-10-19T15:14:22Z</time>
      </trkpt>
      <trkpt lat="46.52951" lon="-0.7493">
        <ele>100</ele>
        <time>2020-10-19T15:15:58Z</time>
      </trkpt>
      <trkpt lat="46.52948" lon="-0.74959">
        <ele>98</ele>
        <time>2020-10-19T15:16:24Z</time>
      </trkpt>
      <trkpt lat="46.5295" lon="-0.74976">
        <ele>98</ele>
        <time>2020-10-19T15:16:40Z</time>
      </trkpt>
      <trkpt lat="46.5294" lon="-0.74991">
        <ele>97</ele>
        <time>2020-10-19T15:16:59Z</time>
      </trkpt>
      <trkpt lat="46.52931" lon="-0.74999">
        <ele>96</ele>
        <time>2020-10-19T15:17:14Z</time>
      </trkpt>
      <trkpt lat="46.52882" lon="-0.75002">
        <ele>98</ele>
        <time>2020-10-19T15:18:19Z</time>
      </trkpt>
      <trkpt lat="46.52822" lon="-0.74995">
        <ele>99</ele>
        <time>2020-10-19T15:19:39Z</time>
      </trkpt>
      <trkpt lat="46.52755" lon="-0.75045">
        <ele>98</ele>
        <time>2020-10-19T15:21:20Z</time>
      </trkpt>
      <trkpt lat="46.52704" lon="-0.75114">
        <ele>91</ele>
        <time>2020-10-19T15:22:53Z</time>
      </trkpt>
      <trkpt lat="46.52642" lon="-0.75153">
        <ele>84</ele>
        <time>2020-10-19T15:24:23Z</time>
      </trkpt>
      <trkpt lat="46.52595" lon="-0.75216">
        <ele>73</ele>
        <time>2020-10-19T15:25:48Z</time>
      </trkpt>
      <trkpt lat="46.52591" lon="-0.75267">
        <ele>67</ele>
        <time>2020-10-19T15:26:35Z</time>
      </trkpt>
      <trkpt lat="46.52585" lon="-0.75288">
        <ele>64</ele>
        <time>2020-10-19T15:26:56Z</time>
      </trkpt>
      <trkpt lat="46.52564" lon="-0.75314">
        <ele>57</ele>
        <time>2020-10-19T15:27:33Z</time>
      </trkpt>
      <trkpt lat="46.52516" lon="-0.75317">
        <ele>47</ele>
        <time>2020-10-19T15:28:37Z</time>
      </trkpt>
      <trkpt lat="46.5251" lon="-0.75344">
        <ele>45</ele>
        <time>2020-10-19T15:29:03Z</time>
      </trkpt>
      <trkpt lat="46.52528" lon="-0.75495">
        <ele>41</ele>
        <time>2020-10-19T15:31:24Z</time>
      </trkpt>
      <trkpt lat="46.52553" lon="-0.75476">
        <ele>43</ele>
        <time>2020-10-19T15:32:02Z</time>
      </trkpt>
      <trkpt lat="46.52574" lon="-0.75448">
        <ele>46</ele>
        <time>2020-10-19T15:32:40Z</time>
      </trkpt>
      <trkpt lat="46.52605" lon="-0.75397">
        <ele>50</ele>
        <time>2020-10-19T15:33:42Z</time>
      </trkpt>
      <trkpt lat="46.52647" lon="-0.75317">
        <ele>55</ele>
        <time>2020-10-19T15:35:15Z</time>
      </trkpt>
      <trkpt lat="46.52684" lon="-0.75263">
        <ele>62</ele>
        <time>2020-10-19T15:36:25Z</time>
      </trkpt>
      <trkpt lat="46.52703" lon="-0.75246">
        <ele>61</ele>
        <time>2020-10-19T15:36:54Z</time>
      </trkpt>
      <trkpt lat="46.52749" lon="-0.75226">
        <ele>58</ele>
        <time>2020-10-19T15:37:58Z</time>
      </trkpt>
      <trkpt lat="46.5281" lon="-0.7522">
        <ele>59</ele>
        <time>2020-10-19T15:39:20Z</time>
      </trkpt>
      <trkpt lat="46.52871" lon="-0.75225">
        <ele>61</ele>
        <time>2020-10-19T15:40:41Z</time>
      </trkpt>
      <trkpt lat="46.52921" lon="-0.7528">
        <ele>58</ele>
        <time>2020-10-19T15:42:05Z</time>
      </trkpt>
      <trkpt lat="46.52943" lon="-0.75314">
        <ele>56</ele>
        <time>2020-10-19T15:42:48Z</time>
      </trkpt>
      <trkpt lat="46.52958" lon="-0.7536">
        <ele>54</ele>
        <time>2020-10-19T15:43:35Z</time>
      </trkpt>
      <trkpt lat="46.52965" lon="-0.75423">
        <ele>51</ele>
        <time>2020-10-19T15:44:33Z</time>
      </trkpt>
      <trkpt lat="46.52969" lon="-0.75498">
        <ele>52</ele>
        <time>2020-10-19T15:45:42Z</time>
      </trkpt>
      <trkpt lat="46.52954" lon="-0.75631">
        <ele>46</ele>
        <time>2020-10-19T15:47:46Z</time>
      </trkpt>
      <trkpt lat="46.52924" lon="-0.75821">
        <ele>42</ele>
        <time>2020-10-19T15:50:45Z</time>
      </trkpt>
      <trkpt lat="46.52911" lon="-0.75969">
        <ele>41</ele>
        <time>2020-10-19T15:53:02Z</time>
      </trkpt>
      <trkpt lat="46.52922" lon="-0.75986">
        <ele>40</ele>
        <time>2020-10-19T15:53:24Z</time>
      </trkpt>
      <trkpt lat="46.52954" lon="-0.76018">
        <ele>41</ele>
        <time>2020-10-19T15:54:15Z</time>
      </trkpt>
      <trkpt lat="46.52967" lon="-0.76025">
        <ele>41</ele>
        <time>2020-10-19T15:54:34Z</time>
      </trkpt>
      <trkpt lat="46.52999" lon="-0.76025">
        <ele>41</ele>
        <time>2020-10-19T15:55:17Z</time>
      </trkpt>
      <trkpt lat="46.53082" lon="-0.75983">
        <ele>48</ele>
        <time>2020-10-19T15:57:14Z</time>
      </trkpt>
      <trkpt lat="46.53133" lon="-0.75979">
        <ele>55</ele>
        <time>2020-10-19T15:58:22Z</time>
      </trkpt>
      <trkpt lat="46.5315" lon="-0.7599">
        <ele>55</ele>
        <time>2020-10-19T15:58:47Z</time>
      </trkpt>
      <trkpt lat="46.53181" lon="-0.76053">
        <ele>50</ele>
        <time>2020-10-19T15:59:58Z</time>
      </trkpt>
      <trkpt lat="46.5321" lon="-0.76102">
        <ele>49</ele>
        <time>2020-10-19T16:00:57Z</time>
      </trkpt>
      <trkpt lat="46.53227" lon="-0.76111">
        <ele>49</ele>
        <time>2020-10-19T16:01:21Z</time>
      </trkpt>
      <trkpt lat="46.53254" lon="-0.76088">
        <ele>50</ele>
        <time>2020-10-19T16:02:03Z</time>
      </trkpt>
      <trkpt lat="46.53334" lon="-0.75973">
        <ele>58</ele>
        <time>2020-10-19T16:04:33Z</time>
      </trkpt>
      <trkpt lat="46.53387" lon="-0.75961">
        <ele>55</ele>
        <time>2020-10-19T16:05:45Z</time>
      </trkpt>
      <trkpt lat="46.53417" lon="-0.75966">
        <ele>51</ele>
        <time>2020-10-19T16:06:25Z</time>
      </trkpt>
      <trkpt lat="46.53454" lon="-0.75999">
        <ele>49</ele>
        <time>2020-10-19T16:07:23Z</time>
      </trkpt>
      <trkpt lat="46.53468" lon="-0.76018">
        <ele>49</ele>
        <time>2020-10-19T16:07:49Z</time>
      </trkpt>
      <trkpt lat="46.53494" lon="-0.76062">
        <ele>47</ele>
        <time>2020-10-19T16:08:42Z</time>
      </trkpt>
      <trkpt lat="46.53508" lon="-0.76069">
        <ele>46</ele>
        <time>2020-10-19T16:09:02Z</time>
      </trkpt>
      <trkpt lat="46.5352" lon="-0.76065">
        <ele>47</ele>
        <time>2020-10-19T16:09:18Z</time>
      </trkpt>
      <trkpt lat="46.53536" lon="-0.76046">
        <ele>49</ele>
        <time>2020-10-19T16:09:46Z</time>
      </trkpt>
      <trkpt lat="46.53554" lon="-0.76019">
        <ele>51</ele>
        <time>2020-10-19T16:10:20Z</time>
      </trkpt>
      <trkpt lat="46.53556" lon="-0.76019">
        <ele>51</ele>
        <time>2020-10-19T16:10:23Z</time>
      </trkpt>
      <trkpt lat="46.53561" lon="-0.76088">
        <ele>47</ele>
        <time>2020-10-19T16:11:27Z</time>
      </trkpt>
      <trkpt lat="46.53568" lon="-0.76092">
        <ele>48</ele>
        <time>2020-10-19T16:11:37Z</time>
      </trkpt>
      <trkpt lat="46.53567" lon="-0.76109">
        <ele>48</ele>
        <time>2020-10-19T16:11:52Z</time>
      </trkpt>
      <trkpt lat="46.53533" lon="-0.76136">
        <ele>50</ele>
        <time>2020-10-19T16:12:44Z</time>
      </trkpt>
      <trkpt lat="46.53519" lon="-0.76137">
        <ele>51</ele>
        <time>2020-10-19T16:13:03Z</time>
      </trkpt>
      <trkpt lat="46.53479" lon="-0.76117">
        <ele>51</ele>
        <time>2020-10-19T16:13:59Z</time>
      </trkpt>
      <trkpt lat="46.53448" lon="-0.76077">
        <ele>48</ele>
        <time>2020-10-19T16:14:54Z</time>
      </trkpt>
      <trkpt lat="46.53412" lon="-0.76051">
        <ele>49</ele>
        <time>2020-10-19T16:15:48Z</time>
      </trkpt>
      <trkpt lat="46.53384" lon="-0.76043">
        <ele>49</ele>
        <time>2020-10-19T16:16:26Z</time>
      </trkpt>
      <trkpt lat="46.53367" lon="-0.76047">
        <ele>50</ele>
        <time>2020-10-19T16:16:49Z</time>
      </trkpt>
      <trkpt lat="46.53284" lon="-0.76127">
        <ele>52</ele>
        <time>2020-10-19T16:19:02Z</time>
      </trkpt>
      <trkpt lat="46.53262" lon="-0.76157">
        <ele>51</ele>
        <time>2020-10-19T16:19:42Z</time>
      </trkpt>
      <trkpt lat="46.53207" lon="-0.76199">
        <ele>57</ele>
        <time>2020-10-19T16:21:05Z</time>
      </trkpt>
      <trkpt lat="46.53193" lon="-0.762">
        <ele>58</ele>
        <time>2020-10-19T16:21:24Z</time>
      </trkpt>
      <trkpt lat="46.53165" lon="-0.76193">
        <ele>58</ele>
        <time>2020-10-19T16:22:02Z</time>
      </trkpt>
      <trkpt lat="46.53155" lon="-0.76179">
        <ele>56</ele>
        <time>2020-10-19T16:22:20Z</time>
      </trkpt>
      <trkpt lat="46.5314" lon="-0.76137">
        <ele>52</ele>
        <time>2020-10-19T16:23:04Z</time>
      </trkpt>
      <trkpt lat="46.53127" lon="-0.76102">
        <ele>49</ele>
        <time>2020-10-19T16:23:40Z</time>
      </trkpt>
      <trkpt lat="46.53101" lon="-0.7608">
        <ele>46</ele>
        <time>2020-10-19T16:24:20Z</time>
      </trkpt>
      <trkpt lat="46.53029" lon="-0.76081">
        <ele>45</ele>
        <time>2020-10-19T16:25:57Z</time>
      </trkpt>
      <trkpt lat="46.52981" lon="-0.76106">
        <ele>47</ele>
        <time>2020-10-19T16:27:05Z</time>
      </trkpt>
      <trkpt lat="46.52944" lon="-0.76114">
        <ele>45</ele>
        <time>2020-10-19T16:27:54Z</time>
      </trkpt>
      <trkpt lat="46.52911" lon="-0.76104">
        <ele>43</ele>
        <time>2020-10-19T16:28:39Z</time>
      </trkpt>
      <trkpt lat="46.529" lon="-0.76118">
        <ele>44</ele>
        <time>2020-10-19T16:28:59Z</time>
      </trkpt>
      <trkpt lat="46.52905" lon="-0.76144">
        <ele>45</ele>
        <time>2020-10-19T16:29:24Z</time>
      </trkpt>
      <trkpt lat="46.52939" lon="-0.76218">
        <ele>51</ele>
        <time>2020-10-19T16:30:45Z</time>
      </trkpt>
      <trkpt lat="46.52946" lon="-0.76251">
        <ele>54</ele>
        <time>2020-10-19T16:31:17Z</time>
      </trkpt>
      <trkpt lat="46.5294" lon="-0.76335">
        <ele>55</ele>
        <time>2020-10-19T16:32:35Z</time>
      </trkpt>
      <trkpt lat="46.5293" lon="-0.76382">
        <ele>55</ele>
        <time>2020-10-19T16:33:20Z</time>
      </trkpt>
      <trkpt lat="46.52873" lon="-0.76535">
        <ele>59</ele>
        <time>2020-10-19T16:36:00Z</time>
      </trkpt>
      <trkpt lat="46.5274" lon="-0.76677">
        <ele>50</ele>
        <time>2020-10-19T16:39:40Z</time>
      </trkpt>
      <trkpt lat="46.52694" lon="-0.76736">
        <ele>49</ele>
        <time>2020-10-19T16:41:02Z</time>
      </trkpt>
      <trkpt lat="46.52686" lon="-0.76755">
        <ele>48</ele>
        <time>2020-10-19T16:41:22Z</time>
      </trkpt>
      <trkpt lat="46.52687" lon="-0.76772">
        <ele>48</ele>
        <time>2020-10-19T16:41:38Z</time>
      </trkpt>
      <trkpt lat="46.52698" lon="-0.76794">
        <ele>48</ele>
        <time>2020-10-19T16:42:03Z</time>
      </trkpt>
      <trkpt lat="46.52716" lon="-0.76803">
        <ele>50</ele>
        <time>2020-10-19T16:42:28Z</time>
      </trkpt>
      <trkpt lat="46.52731" lon="-0.76803">
        <ele>51</ele>
        <time>2020-10-19T16:42:48Z</time>
      </trkpt>
      <trkpt lat="46.52777" lon="-0.7679">
        <ele>52</ele>
        <time>2020-10-19T16:43:51Z</time>
      </trkpt>
      <trkpt lat="46.52794" lon="-0.76769">
        <ele>54</ele>
        <time>2020-10-19T16:44:21Z</time>
      </trkpt>
      <trkpt lat="46.52805" lon="-0.76733">
        <ele>56</ele>
        <time>2020-10-19T16:44:57Z</time>
      </trkpt>
      <trkpt lat="46.52814" lon="-0.7672">
        <ele>57</ele>
        <time>2020-10-19T16:45:14Z</time>
      </trkpt>
      <trkpt lat="46.52851" lon="-0.76722">
        <ele>59</ele>
        <time>2020-10-19T16:46:03Z</time>
      </trkpt>
      <trkpt lat="46.52893" lon="-0.7669">
        <ele>68</ele>
        <time>2020-10-19T16:47:06Z</time>
      </trkpt>
      <trkpt lat="46.52915" lon="-0.76665">
        <ele>77</ele>
        <time>2020-10-19T16:47:44Z</time>
      </trkpt>
      <trkpt lat="46.52936" lon="-0.76639">
        <ele>79</ele>
        <time>2020-10-19T16:48:20Z</time>
      </trkpt>
      <trkpt lat="46.52945" lon="-0.76599">
        <ele>81</ele>
        <time>2020-10-19T16:48:59Z</time>
      </trkpt>
      <trkpt lat="46.52956" lon="-0.76573">
        <ele>83</ele>
        <time>2020-10-19T16:49:27Z</time>
      </trkpt>
      <trkpt lat="46.52972" lon="-0.76556">
        <ele>86</ele>
        <time>2020-10-19T16:49:53Z</time>
      </trkpt>
      <trkpt lat="46.5299" lon="-0.76546">
        <ele>90</ele>
        <time>2020-10-19T16:50:19Z</time>
      </trkpt>
      <trkpt lat="46.53072" lon="-0.76626">
        <ele>89</ele>
        <time>2020-10-19T16:52:31Z</time>
      </trkpt>
      <trkpt lat="46.53121" lon="-0.76665">
        <ele>87</ele>
        <time>2020-10-19T16:53:46Z</time>
      </trkpt>
      <trkpt lat="46.53198" lon="-0.76711">
        <ele>87</ele>
        <time>2020-10-19T16:55:37Z</time>
      </trkpt>
      <trkpt lat="46.53233" lon="-0.76722">
        <ele>89</ele>
        <time>2020-10-19T16:56:24Z</time>
      </trkpt>
      <trkpt lat="46.53347" lon="-0.76789">
        <ele>98</ele>
        <time>2020-10-19T16:59:09Z</time>
      </trkpt>
      <trkpt lat="46.53423" lon="-0.76843">
        <ele>101</ele>
        <time>2020-10-19T17:01:01Z</time>
      </trkpt>
      <trkpt lat="46.53486" lon="-0.76855">
        <ele>104</ele>
        <time>2020-10-19T17:02:26Z</time>
      </trkpt>
      <trkpt lat="46.53505" lon="-0.76855">
        <ele>104</ele>
        <time>2020-10-19T17:02:52Z</time>
      </trkpt>
      <trkpt lat="46.53608" lon="-0.76842">
        <ele>106</ele>
        <time>2020-10-19T17:05:09Z</time>
      </trkpt>
      <trkpt lat="46.53652" lon="-0.76833">
        <ele>105</ele>
        <time>2020-10-19T17:06:09Z</time>
      </trkpt>
      <trkpt lat="46.53666" lon="-0.76837">
        <ele>104</ele>
        <time>2020-10-19T17:06:28Z</time>
      </trkpt>
      <trkpt lat="46.53724" lon="-0.76921">
        <ele>95</ele>
        <time>2020-10-19T17:08:17Z</time>
      </trkpt>
      <trkpt lat="46.53727" lon="-0.76946">
        <ele>95</ele>
        <time>2020-10-19T17:08:40Z</time>
      </trkpt>
      <trkpt lat="46.53706" lon="-0.7699">
        <ele>94</ele>
        <time>2020-10-19T17:09:30Z</time>
      </trkpt>
      <trkpt lat="46.53654" lon="-0.77062">
        <ele>92</ele>
        <time>2020-10-19T17:11:05Z</time>
      </trkpt>
      <trkpt lat="46.5364" lon="-0.77123">
        <ele>90</ele>
        <time>2020-10-19T17:12:04Z</time>
      </trkpt>
      <trkpt lat="46.53638" lon="-0.77152">
        <ele>88</ele>
        <time>2020-10-19T17:12:31Z</time>
      </trkpt>
      <trkpt lat="46.53643" lon="-0.77193">
        <ele>86</ele>
        <time>2020-10-19T17:13:09Z</time>
      </trkpt>
      <trkpt lat="46.53658" lon="-0.77241">
        <ele>83</ele>
        <time>2020-10-19T17:13:58Z</time>
      </trkpt>
      <trkpt lat="46.53726" lon="-0.7724">
        <ele>83</ele>
        <time>2020-10-19T17:15:29Z</time>
      </trkpt>
      <trkpt lat="46.53848" lon="-0.77241">
        <ele>81</ele>
        <time>2020-10-19T17:18:11Z</time>
      </trkpt>
      <trkpt lat="46.53988" lon="-0.77237">
        <ele>86</ele>
        <time>2020-10-19T17:21:18Z</time>
      </trkpt>
      <trkpt lat="46.54054" lon="-0.7724">
        <ele>90</ele>
        <time>2020-10-19T17:22:46Z</time>
      </trkpt>
      <trkpt lat="46.54136" lon="-0.77239">
        <ele>96</ele>
        <time>2020-10-19T17:24:36Z</time>
      </trkpt>
      <trkpt lat="46.54268" lon="-0.77246">
        <ele>99</ele>
        <time>2020-10-19T17:27:32Z</time>
      </trkpt>
      <trkpt lat="46.54324" lon="-0.77243">
        <ele>96</ele>
        <time>2020-10-19T17:28:47Z</time>
      </trkpt>
      <trkpt lat="46.543" lon="-0.77277">
        <ele>93</ele>
        <time>2020-10-19T17:29:32Z</time>
      </trkpt>
      <trkpt lat="46.54298" lon="-0.77286">
        <ele>92</ele>
        <time>2020-10-19T17:29:40Z</time>
      </trkpt>
      <trkpt lat="46.54314" lon="-0.77336">
        <ele>85</ele>
        <time>2020-10-19T17:30:31Z</time>
      </trkpt>
      <trkpt lat="46.54321" lon="-0.77349">
        <ele>81</ele>
        <time>2020-10-19T17:30:46Z</time>
      </trkpt>
      <trkpt lat="46.54347" lon="-0.77376">
        <ele>73</ele>
        <time>2020-10-19T17:31:29Z</time>
      </trkpt>
      <trkpt lat="46.54357" lon="-0.77411">
        <ele>65</ele>
        <time>2020-10-19T17:32:03Z</time>
      </trkpt>
      <trkpt lat="46.54367" lon="-0.77451">
        <ele>58</ele>
        <time>2020-10-19T17:32:42Z</time>
      </trkpt>
      <trkpt lat="46.54412" lon="-0.77505">
        <ele>53</ele>
        <time>2020-10-19T17:34:00Z</time>
      </trkpt>
      <trkpt lat="46.5442" lon="-0.77524">
        <ele>53</ele>
        <time>2020-10-19T17:34:21Z</time>
      </trkpt>
      <trkpt lat="46.54435" lon="-0.77649">
        <ele>51</ele>
        <time>2020-10-19T17:36:17Z</time>
      </trkpt>
      <trkpt lat="46.54412" lon="-0.77933">
        <ele>52</ele>
        <time>2020-10-19T17:40:40Z</time>
      </trkpt>
      <trkpt lat="46.54405" lon="-0.78032">
        <ele>53</ele>
        <time>2020-10-19T17:42:11Z</time>
      </trkpt>
      <trkpt lat="46.5441" lon="-0.78065">
        <ele>54</ele>
        <time>2020-10-19T17:42:42Z</time>
      </trkpt>
      <trkpt lat="46.54413" lon="-0.78114">
        <ele>53</ele>
        <time>2020-10-19T17:43:27Z</time>
      </trkpt>
      <trkpt lat="46.54323" lon="-0.78109">
        <ele>48</ele>
        <time>2020-10-19T17:45:27Z</time>
      </trkpt>
      <trkpt lat="46.54287" lon="-0.781">
        <ele>64</ele>
        <time>2020-10-19T17:46:16Z</time>
      </trkpt>
      <trkpt lat="46.54286" lon="-0.78069">
        <ele>65</ele>
        <time>2020-10-19T17:46:45Z</time>
      </trkpt>
      <trkpt lat="46.54279" lon="-0.78069">
        <ele>68</ele>
        <time>2020-10-19T17:46:54Z</time>
      </trkpt>
      <trkpt lat="46.54261" lon="-0.78089">
        <ele>75</ele>
        <time>2020-10-19T17:47:24Z</time>
      </trkpt>
      <trkpt lat="46.54259" lon="-0.78095">
        <ele>76</ele>
        <time>2020-10-19T17:47:30Z</time>
      </trkpt>
      <trkpt lat="46.54259" lon="-0.78095">
        <ele>76</ele>
        <time>2020-10-19T17:47:30Z</time>
      </trkpt>
      <trkpt lat="46.54265" lon="-0.78096">
        <ele>74</ele>
        <time>2020-10-19T17:47:38Z</time>
      </trkpt>
      <trkpt lat="46.54291" lon="-0.78068">
        <ele>62</ele>
        <time>2020-10-19T17:48:22Z</time>
      </trkpt>
      <trkpt lat="46.54297" lon="-0.78047">
        <ele>60</ele>
        <time>2020-10-19T17:48:42Z</time>
      </trkpt>
      <trkpt lat="46.54311" lon="-0.78026">
        <ele>55</ele>
        <time>2020-10-19T17:49:09Z</time>
      </trkpt>
      <trkpt lat="46.54303" lon="-0.7801">
        <ele>58</ele>
        <time>2020-10-19T17:49:27Z</time>
      </trkpt>
      <trkpt lat="46.54302" lon="-0.78048">
        <ele>58</ele>
        <time>2020-10-19T17:50:02Z</time>
      </trkpt>
      <trkpt lat="46.54281" lon="-0.78091">
        <ele>67</ele>
        <time>2020-10-19T17:50:51Z</time>
      </trkpt>
      <trkpt lat="46.54282" lon="-0.78101">
        <ele>66</ele>
        <time>2020-10-19T17:51:00Z</time>
      </trkpt>
      <trkpt lat="46.54314" lon="-0.78115">
        <ele>52</ele>
        <time>2020-10-19T17:51:45Z</time>
      </trkpt>
      <trkpt lat="46.5435" lon="-0.78123">
        <ele>46</ele>
        <time>2020-10-19T17:52:33Z</time>
      </trkpt>
      <trkpt lat="46.54405" lon="-0.78118">
        <ele>52</ele>
        <time>2020-10-19T17:53:47Z</time>
      </trkpt>
      <trkpt lat="46.54414" lon="-0.78146">
        <ele>52</ele>
        <time>2020-10-19T17:54:15Z</time>
      </trkpt>
      <trkpt lat="46.54414" lon="-0.78146">
        <ele>52</ele>
        <time>2020-10-19T17:54:15Z</time>
      </trkpt>
      <trkpt lat="46.5446" lon="-0.78209">
        <ele>54</ele>
        <time>2020-10-19T17:55:39Z</time>
      </trkpt>
      <trkpt lat="46.54494" lon="-0.78207">
        <ele>55</ele>
        <time>2020-10-19T17:56:25Z</time>
      </trkpt>
      <trkpt lat="46.54597" lon="-0.78158">
        <ele>53</ele>
        <time>2020-10-19T17:58:49Z</time>
      </trkpt>
      <trkpt lat="46.54607" lon="-0.78151">
        <ele>54</ele>
        <time>2020-10-19T17:59:04Z</time>
      </trkpt>
      <trkpt lat="46.54614" lon="-0.78137">
        <ele>55</ele>
        <time>2020-10-19T17:59:20Z</time>
      </trkpt>
      <trkpt lat="46.5461" lon="-0.7809">
        <ele>61</ele>
        <time>2020-10-19T18:00:04Z</time>
      </trkpt>
      <trkpt lat="46.54559" lon="-0.77964">
        <ele>78</ele>
        <time>2020-10-19T18:02:18Z</time>
      </trkpt>
      <trkpt lat="46.54552" lon="-0.77911">
        <ele>78</ele>
        <time>2020-10-19T18:03:07Z</time>
      </trkpt>
      <trkpt lat="46.54625" lon="-0.77715">
        <ele>85</ele>
        <time>2020-10-19T18:06:32Z</time>
      </trkpt>
      <trkpt lat="46.5466" lon="-0.77581">
        <ele>90</ele>
        <time>2020-10-19T18:08:43Z</time>
      </trkpt>
      <trkpt lat="46.54654" lon="-0.77494">
        <ele>90</ele>
        <time>2020-10-19T18:10:04Z</time>
      </trkpt>
      <trkpt lat="46.54636" lon="-0.77429">
        <ele>91</ele>
        <time>2020-10-19T18:11:08Z</time>
      </trkpt>
      <trkpt lat="46.5463" lon="-0.77313">
        <ele>90</ele>
        <time>2020-10-19T18:12:55Z</time>
      </trkpt>
      <trkpt lat="46.5459" lon="-0.77243">
        <ele>88</ele>
        <time>2020-10-19T18:14:18Z</time>
      </trkpt>
      <trkpt lat="46.54611" lon="-0.77247">
        <ele>87</ele>
        <time>2020-10-19T18:14:47Z</time>
      </trkpt>
      <trkpt lat="46.5469" lon="-0.77278">
        <ele>85</ele>
        <time>2020-10-19T18:16:36Z</time>
      </trkpt>
      <trkpt lat="46.54774" lon="-0.77305">
        <ele>80</ele>
        <time>2020-10-19T18:18:31Z</time>
      </trkpt>
      <trkpt lat="46.54989" lon="-0.77383">
        <ele>74</ele>
        <time>2020-10-19T18:23:26Z</time>
      </trkpt>
      <trkpt lat="46.55111" lon="-0.77419">
        <ele>72</ele>
        <time>2020-10-19T18:26:12Z</time>
      </trkpt>
      <trkpt lat="46.5524" lon="-0.77277">
        <ele>74</ele>
        <time>2020-10-19T18:29:48Z</time>
      </trkpt>
      <trkpt lat="46.55252" lon="-0.77257">
        <ele>74</ele>
        <time>2020-10-19T18:30:13Z</time>
      </trkpt>
      <trkpt lat="46.55303" lon="-0.77225">
        <ele>76</ele>
        <time>2020-10-19T18:31:27Z</time>
      </trkpt>
      <trkpt lat="46.55378" lon="-0.77223">
        <ele>74</ele>
        <time>2020-10-19T18:33:07Z</time>
      </trkpt>
      <trkpt lat="46.55511" lon="-0.77115">
        <ele>66</ele>
        <time>2020-10-19T18:36:30Z</time>
      </trkpt>
      <trkpt lat="46.55552" lon="-0.77012">
        <ele>66</ele>
        <time>2020-10-19T18:38:19Z</time>
      </trkpt>
      <trkpt lat="46.55632" lon="-0.77017">
        <ele>64</ele>
        <time>2020-10-19T18:40:06Z</time>
      </trkpt>
      <trkpt lat="46.55769" lon="-0.77093">
        <ele>68</ele>
        <time>2020-10-19T18:43:22Z</time>
      </trkpt>
      <trkpt lat="46.55839" lon="-0.77107">
        <ele>69</ele>
        <time>2020-10-19T18:44:56Z</time>
      </trkpt>
      <trkpt lat="46.55939" lon="-0.77173">
        <ele>67</ele>
        <time>2020-10-19T18:47:23Z</time>
      </trkpt>
      <trkpt lat="46.56047" lon="-0.77179">
        <ele>67</ele>
        <time>2020-10-19T18:49:47Z</time>
      </trkpt>
      <trkpt lat="46.56147" lon="-0.77067">
        <ele>72</ele>
        <time>2020-10-19T18:52:35Z</time>
      </trkpt>
      <trkpt lat="46.56199" lon="-0.76941">
        <ele>74</ele>
        <time>2020-10-19T18:54:50Z</time>
      </trkpt>
      <trkpt lat="46.56286" lon="-0.76699">
        <ele>79</ele>
        <time>2020-10-19T18:59:01Z</time>
      </trkpt>
      <trkpt lat="46.56295" lon="-0.76694">
        <ele>79</ele>
        <time>2020-10-19T18:59:14Z</time>
      </trkpt>
      <trkpt lat="46.5647" lon="-0.76806">
        <ele>76</ele>
        <time>2020-10-19T19:03:29Z</time>
      </trkpt>
      <trkpt lat="46.5651" lon="-0.76762">
        <ele>76</ele>
        <time>2020-10-19T19:04:36Z</time>
      </trkpt>
      <trkpt lat="46.56536" lon="-0.76751">
        <ele>76</ele>
        <time>2020-10-19T19:05:12Z</time>
      </trkpt>
      <trkpt lat="46.56567" lon="-0.76736">
        <ele>76</ele>
        <time>2020-10-19T19:05:55Z</time>
      </trkpt>
      <trkpt lat="46.56587" lon="-0.76739">
        <ele>76</ele>
        <time>2020-10-19T19:06:22Z</time>
      </trkpt>
      <trkpt lat="46.56601" lon="-0.7676">
        <ele>75</ele>
        <time>2020-10-19T19:06:49Z</time>
      </trkpt>
      <trkpt lat="46.5664" lon="-0.76835">
        <ele>75</ele>
        <time>2020-10-19T19:08:15Z</time>
      </trkpt>
      <trkpt lat="46.56708" lon="-0.76943">
        <ele>76</ele>
        <time>2020-10-19T19:10:30Z</time>
      </trkpt>
      <trkpt lat="46.56699" lon="-0.77041">
        <ele>73</ele>
        <time>2020-10-19T19:12:00Z</time>
      </trkpt>
      <trkpt lat="46.568" lon="-0.77105">
        <ele>64</ele>
        <time>2020-10-19T19:14:27Z</time>
      </trkpt>
      <trkpt lat="46.56828" lon="-0.77117">
        <ele>60</ele>
        <time>2020-10-19T19:15:06Z</time>
      </trkpt>
      <trkpt lat="46.56862" lon="-0.77125">
        <ele>58</ele>
        <time>2020-10-19T19:15:52Z</time>
      </trkpt>
      <trkpt lat="46.56884" lon="-0.77108">
        <ele>56</ele>
        <time>2020-10-19T19:16:26Z</time>
      </trkpt>
      <trkpt lat="46.56889" lon="-0.77109">
        <ele>55</ele>
        <time>2020-10-19T19:16:32Z</time>
      </trkpt>
      <trkpt lat="46.56882" lon="-0.7713">
        <ele>56</ele>
        <time>2020-10-19T19:16:54Z</time>
      </trkpt>
      <trkpt lat="46.56882" lon="-0.77154">
        <ele>56</ele>
        <time>2020-10-19T19:17:16Z</time>
      </trkpt>
      <trkpt lat="46.56885" lon="-0.77198">
        <ele>57</ele>
        <time>2020-10-19T19:17:56Z</time>
      </trkpt>
      <trkpt lat="46.56906" lon="-0.77239">
        <ele>56</ele>
        <time>2020-10-19T19:18:43Z</time>
      </trkpt>
      <trkpt lat="46.56932" lon="-0.77247">
        <ele>55</ele>
        <time>2020-10-19T19:19:19Z</time>
      </trkpt>
      <trkpt lat="46.57001" lon="-0.77231">
        <ele>57</ele>
        <time>2020-10-19T19:20:52Z</time>
      </trkpt>
      <trkpt lat="46.57052" lon="-0.77227">
        <ele>57</ele>
        <time>2020-10-19T19:22:00Z</time>
      </trkpt>
      <trkpt lat="46.5712" lon="-0.77209">
        <ele>56</ele>
        <time>2020-10-19T19:23:32Z</time>
      </trkpt>
      <trkpt lat="46.57113" lon="-0.77138">
        <ele>57</ele>
        <time>2020-10-19T19:24:38Z</time>
      </trkpt>
      <trkpt lat="46.57073" lon="-0.77076">
        <ele>60</ele>
        <time>2020-10-19T19:25:56Z</time>
      </trkpt>
      <trkpt lat="46.57073" lon="-0.77053">
        <ele>61</ele>
        <time>2020-10-19T19:26:17Z</time>
      </trkpt>
      <trkpt lat="46.57065" lon="-0.77041">
        <ele>61</ele>
        <time>2020-10-19T19:26:33Z</time>
      </trkpt>
      <trkpt lat="46.57075" lon="-0.76978">
        <ele>64</ele>
        <time>2020-10-19T19:27:32Z</time>
      </trkpt>
    </trkseg>
  </trk>
</gpx>